KGLH Airport (Greenville Mid-Delta) Information

FAA: GLH - ICAO: KGLH

KGLH Airport Location

State Mississippi
County Washington
City Greenville
KGLH Airport is 5 miles northeast of Greenville, MS.
Latitude 33-28-58.3720N
Longitude 090-59-08.2100W
Elevation 130ft

KGLH Airport METARs

METAR KGLH 072053Z 21011KT 10SM CLR 27/19 A3017 RMK AO2 SLP223 T02670189 56013
Altimeter 30.17"
Temperature 26.7°C (80.1°F)
Wind 210° at 11KT
Clouds Skies are clear.
Visibility 10.0mi
Time observed: 2022-12-07T20:53:00Z

KGLH Airport Details

Status Operational
Activation June 1942
Ownership Public
Usage Public
Chart MEMPHIS
ATC on-site Yes
Beacon schedule sunset-sunrise
Beacon color clear green

KGLH Airport Contacts

Owner CITY OF GREENVILLE
Owner address 340 MAIN STREET, GREENVILLE, MS 38701
Owner phone N/A
Manager JOHN FLETCHER
Manager address 1200 AIRPORT CIRCLE, DIAMONDHEAD, MS 39525
Manager phone (228) 216-1935

KGLH Airport (Greenville Mid-Delta) Radio Frequencies

KGLH (Airport) Radio Frequencies

UNICOM 122.95
Common traffic advisory frequency (CTAF) 119